sensor_id;sensor_type;location;lat;lon;timestamp;P1;durP1;ratioP1;P2;durP2;ratioP2
75798;SDS011;70933;44.692;37.776;2023-07-20T00:00:30;3.72;;;3.25;;
75798;SDS011;70933;44.692;37.776;2023-07-20T00:01:32;4.07;;;3.72;;
75798;SDS011;70933;44.692;37.776;2023-07-20T00:02:34;3.55;;;3.25;;
75798;SDS011;70933;44.692;37.776;2023-07-20T00:03:36;3.42;;;1.80;;
75798;SDS011;70933;44.692;37.776;2023-07-20T00:04:37;2.85;;;1.83;;
75798;SDS011;70933;44.692;37.776;2023-07-20T00:05:39;2.42;;;1.63;;
75798;SDS011;70933;44.692;37.776;2023-07-20T00:06:41;3.35;;;2.95;;
75798;SDS011;70933;44.692;37.776;2023-07-20T00:07:43;3.35;;;1.90;;
75798;SDS011;70933;44.692;37.776;2023-07-20T00:08:45;3.33;;;3.03;;
75798;SDS011;70933;44.692;37.776;2023-07-20T00:09:47;4.32;;;3.35;;
75798;SDS011;70933;44.692;37.776;2023-07-20T00:10:49;3.67;;;3.38;;
75798;SDS011;70933;44.692;37.776;2023-07-20T00:11:51;3.50;;;3.20;;
75798;SDS011;70933;44.692;37.776;2023-07-20T00:12:54;3.42;;;3.13;;
75798;SDS011;70933;44.692;37.776;2023-07-20T00:13:55;4.03;;;3.72;;
75798;SDS011;70933;44.692;37.776;2023-07-20T00:14:57;3.78;;;3.47;;
75798;SDS011;70933;44.692;37.776;2023-07-20T00:15:59;3.50;;;3.20;;
75798;SDS011;70933;44.692;37.776;2023-07-20T00:17:02;4.57;;;3.83;;
75798;SDS011;70933;44.692;37.776;2023-07-20T00:18:04;3.80;;;3.40;;
75798;SDS011;70933;44.692;37.776;2023-07-20T00:19:06;3.75;;;3.22;;
75798;SDS011;70933;44.692;37.776;2023-07-20T00:20:08;3.95;;;3.63;;
75798;SDS011;70933;44.692;37.776;2023-07-20T00:21:10;3.78;;;3.47;;
75798;SDS011;70933;44.692;37.776;2023-07-20T00:22:12;3.67;;;3.38;;
75798;SDS011;70933;44.692;37.776;2023-07-20T00:23:14;3.92;;;1.98;;
75798;SDS011;70933;44.692;37.776;2023-07-20T00:24:16;2.83;;;1.63;;
75798;SDS011;70933;44.692;37.776;2023-07-20T00:25:18;3.58;;;3.28;;
75798;SDS011;70933;44.692;37.776;2023-07-20T00:26:21;3.83;;;3.53;;
75798;SDS011;70933;44.692;37.776;2023-07-20T00:27:23;3.65;;;3.35;;
75798;SDS011;70933;44.692;37.776;2023-07-20T00:28:25;2.50;;;1.73;;
75798;SDS011;70933;44.692;37.776;2023-07-20T00:29:26;3.72;;;3.42;;
75798;SDS011;70933;44.692;37.776;2023-07-20T00:30:28;4.05;;;3.75;;
75798;SDS011;70933;44.692;37.776;2023-07-20T00:31:30;3.78;;;3.47;;
75798;SDS011;70933;44.692;37.776;2023-07-20T00:32:32;3.38;;;3.08;;
75798;SDS011;70933;44.692;37.776;2023-07-20T00:33:34;3.20;;;2.90;;
75798;SDS011;70933;44.692;37.776;2023-07-20T00:34:35;3.50;;;3.20;;
75798;SDS011;70933;44.692;37.776;2023-07-20T00:35:38;3.45;;;3.15;;
75798;SDS011;70933;44.692;37.776;2023-07-20T00:36:40;3.40;;;3.10;;
75798;SDS011;70933;44.692;37.776;2023-07-20T00:37:42;3.17;;;2.70;;
75798;SDS011;70933;44.692;37.776;2023-07-20T00:38:44;3.92;;;3.63;;
75798;SDS011;70933;44.692;37.776;2023-07-20T00:39:46;2.47;;;1.58;;
75798;SDS011;70933;44.692;37.776;2023-07-20T00:40:48;3.28;;;2.97;;
75798;SDS011;70933;44.692;37.776;2023-07-20T00:41:53;3.45;;;2.88;;
75798;SDS011;70933;44.692;37.776;2023-07-20T00:42:55;3.72;;;3.42;;
75798;SDS011;70933;44.692;37.776;2023-07-20T00:43:59;3.72;;;3.38;;
75798;SDS011;70933;44.692;37.776;2023-07-20T00:45:01;3.70;;;3.40;;
75798;SDS011;70933;44.692;37.776;2023-07-20T00:46:07;3.38;;;3.08;;
75798;SDS011;70933;44.692;37.776;2023-07-20T00:47:10;2.60;;;1.98;;
75798;SDS011;70933;44.692;37.776;2023-07-20T00:48:13;3.50;;;3.20;;
75798;SDS011;70933;44.692;37.776;2023-07-20T00:49:16;3.30;;;3.00;;
75798;SDS011;70933;44.692;37.776;2023-07-20T00:50:22;2.88;;;2.58;;
75798;SDS011;70933;44.692;37.776;2023-07-20T00:51:25;3.42;;;3.13;;
75798;SDS011;70933;44.692;37.776;2023-07-20T00:52:27;3.10;;;2.80;;
75798;SDS011;70933;44.692;37.776;2023-07-20T00:53:30;3.45;;;3.10;;
75798;SDS011;70933;44.692;37.776;2023-07-20T00:54:32;3.40;;;3.10;;
75798;SDS011;70933;44.692;37.776;2023-07-20T00:55:34;3.50;;;3.25;;
75798;SDS011;70933;44.692;37.776;2023-07-20T00:56:36;2.25;;;1.80;;
75798;SDS011;70933;44.692;37.776;2023-07-20T00:57:38;3.60;;;3.30;;
75798;SDS011;70933;44.692;37.776;2023-07-20T00:58:42;3.35;;;3.05;;
75798;SDS011;70933;44.692;37.776;2023-07-20T00:59:44;3.13;;;2.17;;
75798;SDS011;70933;44.692;37.776;2023-07-20T01:00:46;3.05;;;2.75;;
75798;SDS011;70933;44.692;37.776;2023-07-20T01:01:48;3.90;;;3.47;;
75798;SDS011;70933;44.692;37.776;2023-07-20T01:02:51;4.68;;;2.90;;
75798;SDS011;70933;44.692;37.776;2023-07-20T01:03:53;3.55;;;3.25;;
75798;SDS011;70933;44.692;37.776;2023-07-20T01:04:55;3.20;;;2.90;;
75798;SDS011;70933;44.692;37.776;2023-07-20T01:09:42;3.13;;;2.72;;
75798;SDS011;70933;44.692;37.776;2023-07-20T01:10:59;3.08;;;2.75;;
75798;SDS011;70933;44.692;37.776;2023-07-20T01:13:14;3.40;;;2.83;;
75798;SDS011;70933;44.692;37.776;2023-07-20T01:14:19;3.50;;;3.20;;
75798;SDS011;70933;44.692;37.776;2023-07-20T01:15:22;3.55;;;3.25;;
75798;SDS011;70933;44.692;37.776;2023-07-20T01:16:24;3.40;;;2.92;;
75798;SDS011;70933;44.692;37.776;2023-07-20T01:17:26;2.67;;;2.47;;
75798;SDS011;70933;44.692;37.776;2023-07-20T01:18:27;3.28;;;2.80;;
75798;SDS011;70933;44.692;37.776;2023-07-20T01:19:29;4.00;;;3.60;;
75798;SDS011;70933;44.692;37.776;2023-07-20T01:20:33;2.97;;;2.78;;
75798;SDS011;70933;44.692;37.776;2023-07-20T01:21:40;2.15;;;1.40;;
75798;SDS011;70933;44.692;37.776;2023-07-20T01:23:18;3.20;;;2.90;;
75798;SDS011;70933;44.692;37.776;2023-07-20T01:24:38;3.25;;;2.67;;
75798;SDS011;70933;44.692;37.776;2023-07-20T01:26:07;3.17;;;2.88;;
75798;SDS011;70933;44.692;37.776;2023-07-20T01:30:04;3.05;;;2.58;;
75798;SDS011;70933;44.692;37.776;2023-07-20T01:31:27;2.85;;;2.65;;
75798;SDS011;70933;44.692;37.776;2023-07-20T01:32:31;2.70;;;1.65;;
75798;SDS011;70933;44.692;37.776;2023-07-20T01:33:35;5.75;;;3.15;;
75798;SDS011;70933;44.692;37.776;2023-07-20T01:34:37;3.95;;;3.55;;
75798;SDS011;70933;44.692;37.776;2023-07-20T01:35:41;2.75;;;2.55;;
75798;SDS011;70933;44.692;37.776;2023-07-20T01:36:45;2.95;;;2.65;;
75798;SDS011;70933;44.692;37.776;2023-07-20T01:37:50;4.55;;;3.22;;
75798;SDS011;70933;44.692;37.776;2023-07-20T01:38:52;2.80;;;2.60;;
75798;SDS011;70933;44.692;37.776;2023-07-20T01:39:55;1.92;;;1.20;;
75798;SDS011;70933;44.692;37.776;2023-07-20T01:40:58;3.25;;;1.60;;
75798;SDS011;70933;44.692;37.776;2023-07-20T01:42:00;3.38;;;2.92;;
75798;SDS011;70933;44.692;37.776;2023-07-20T01:43:02;2.35;;;1.30;;
75798;SDS011;70933;44.692;37.776;2023-07-20T01:44:04;2.38;;;1.73;;
75798;SDS011;70933;44.692;37.776;2023-07-20T01:45:06;2.90;;;2.60;;
75798;SDS011;70933;44.692;37.776;2023-07-20T01:46:09;3.00;;;2.70;;
75798;SDS011;70933;44.692;37.776;2023-07-20T01:47:11;3.67;;;3.20;;
75798;SDS011;70933;44.692;37.776;2023-07-20T01:48:13;2.20;;;1.40;;
75798;SDS011;70933;44.692;37.776;2023-07-20T01:49:14;3.25;;;2.80;;
75798;SDS011;70933;44.692;37.776;2023-07-20T01:50:16;3.47;;;3.08;;
75798;SDS011;70933;44.692;37.776;2023-07-20T01:51:18;2.78;;;2.50;;
75798;SDS011;70933;44.692;37.776;2023-07-20T01:52:20;3.00;;;2.45;;
75798;SDS011;70933;44.692;37.776;2023-07-20T01:53:22;2.40;;;2.20;;
75798;SDS011;70933;44.692;37.776;2023-07-20T01:54:24;2.72;;;1.50;;
75798;SDS011;70933;44.692;37.776;2023-07-20T01:55:25;3.13;;;2.92;;
75798;SDS011;70933;44.692;37.776;2023-07-20T01:56:27;3.15;;;2.85;;
75798;SDS011;70933;44.692;37.776;2023-07-20T01:57:30;2.53;;;1.27;;
75798;SDS011;70933;44.692;37.776;2023-07-20T01:58:31;2.85;;;2.65;;
75798;SDS011;70933;44.692;37.776;2023-07-20T01:59:33;2.15;;;1.30;;
75798;SDS011;70933;44.692;37.776;2023-07-20T02:00:36;2.85;;;2.65;;
75798;SDS011;70933;44.692;37.776;2023-07-20T02:02:41;1.90;;;1.35;;
75798;SDS011;70933;44.692;37.776;2023-07-20T02:03:43;2.25;;;2.03;;
75798;SDS011;70933;44.692;37.776;2023-07-20T02:04:45;2.78;;;2.58;;
75798;SDS011;70933;44.692;37.776;2023-07-20T02:05:47;2.95;;;2.65;;
75798;SDS011;70933;44.692;37.776;2023-07-20T02:06:49;2.53;;;2.30;;
75798;SDS011;70933;44.692;37.776;2023-07-20T02:07:50;3.05;;;2.65;;
75798;SDS011;70933;44.692;37.776;2023-07-20T02:08:54;3.10;;;2.80;;
75798;SDS011;70933;44.692;37.776;2023-07-20T02:09:56;3.30;;;2.78;;
75798;SDS011;70933;44.692;37.776;2023-07-20T02:10:58;2.80;;;2.50;;
75798;SDS011;70933;44.692;37.776;2023-07-20T02:12:00;2.95;;;2.72;;
75798;SDS011;70933;44.692;37.776;2023-07-20T02:13:02;2.40;;;1.25;;
75798;SDS011;70933;44.692;37.776;2023-07-20T02:14:04;2.00;;;1.38;;
75798;SDS011;70933;44.692;37.776;2023-07-20T02:15:06;2.95;;;2.67;;
75798;SDS011;70933;44.692;37.776;2023-07-20T02:16:10;2.65;;;2.45;;
75798;SDS011;70933;44.692;37.776;2023-07-20T02:17:12;3.80;;;2.78;;
75798;SDS011;70933;44.692;37.776;2023-07-20T02:18:15;2.50;;;1.33;;
75798;SDS011;70933;44.692;37.776;2023-07-20T02:19:17;3.53;;;3.30;;
75798;SDS011;70933;44.692;37.776;2023-07-20T02:20:20;2.00;;;1.10;;
75798;SDS011;70933;44.692;37.776;2023-07-20T02:21:22;3.30;;;3.00;;
75798;SDS011;70933;44.692;37.776;2023-07-20T02:22:24;3.17;;;2.88;;
75798;SDS011;70933;44.692;37.776;2023-07-20T02:23:26;3.10;;;2.80;;
75798;SDS011;70933;44.692;37.776;2023-07-20T02:24:27;3.03;;;2.78;;
75798;SDS011;70933;44.692;37.776;2023-07-20T02:25:29;2.92;;;1.10;;
75798;SDS011;70933;44.692;37.776;2023-07-20T02:26:31;2.80;;;2.60;;
75798;SDS011;70933;44.692;37.776;2023-07-20T02:27:33;3.15;;;2.83;;
75798;SDS011;70933;44.692;37.776;2023-07-20T02:28:36;3.47;;;3.17;;
75798;SDS011;70933;44.692;37.776;2023-07-20T02:29:37;2.95;;;2.67;;
75798;SDS011;70933;44.692;37.776;2023-07-20T02:30:39;2.72;;;2.53;;
75798;SDS011;70933;44.692;37.776;2023-07-20T02:31:41;2.67;;;1.40;;
75798;SDS011;70933;44.692;37.776;2023-07-20T02:32:44;2.45;;;1.30;;
75798;SDS011;70933;44.692;37.776;2023-07-20T02:33:49;3.28;;;2.97;;
75798;SDS011;70933;44.692;37.776;2023-07-20T02:34:51;2.63;;;1.45;;
75798;SDS011;70933;44.692;37.776;2023-07-20T02:35:53;2.30;;;1.27;;
75798;SDS011;70933;44.692;37.776;2023-07-20T02:36:55;2.40;;;2.20;;
75798;SDS011;70933;44.692;37.776;2023-07-20T02:38:02;2.03;;;1.20;;
75798;SDS011;70933;44.692;37.776;2023-07-20T02:39:04;2.42;;;1.33;;
75798;SDS011;70933;44.692;37.776;2023-07-20T02:40:06;2.67;;;2.47;;
75798;SDS011;70933;44.692;37.776;2023-07-20T02:41:08;2.30;;;0.93;;
75798;SDS011;70933;44.692;37.776;2023-07-20T02:42:10;3.20;;;2.78;;
75798;SDS011;70933;44.692;37.776;2023-07-20T02:43:12;2.55;;;2.35;;
75798;SDS011;70933;44.692;37.776;2023-07-20T02:44:14;3.13;;;2.83;;
75798;SDS011;70933;44.692;37.776;2023-07-20T02:45:16;2.92;;;2.50;;
75798;SDS011;70933;44.692;37.776;2023-07-20T02:46:18;2.85;;;2.55;;
75798;SDS011;70933;44.692;37.776;2023-07-20T02:47:20;2.97;;;2.67;;
75798;SDS011;70933;44.692;37.776;2023-07-20T02:48:22;3.28;;;3.08;;
75798;SDS011;70933;44.692;37.776;2023-07-20T02:49:23;2.22;;;1.17;;
75798;SDS011;70933;44.692;37.776;2023-07-20T02:50:25;3.28;;;2.97;;
75798;SDS011;70933;44.692;37.776;2023-07-20T02:51:27;2.92;;;2.67;;
75798;SDS011;70933;44.692;37.776;2023-07-20T02:52:28;3.20;;;1.05;;
75798;SDS011;70933;44.692;37.776;2023-07-20T02:53:31;2.45;;;1.27;;
75798;SDS011;70933;44.692;37.776;2023-07-20T02:54:33;2.90;;;2.58;;
75798;SDS011;70933;44.692;37.776;2023-07-20T02:55:34;3.08;;;2.88;;
75798;SDS011;70933;44.692;37.776;2023-07-20T02:56:36;2.95;;;2.65;;
75798;SDS011;70933;44.692;37.776;2023-07-20T02:57:38;3.25;;;2.95;;
75798;SDS011;70933;44.692;37.776;2023-07-20T02:58:41;2.83;;;2.63;;
75798;SDS011;70933;44.692;37.776;2023-07-20T02:59:47;3.15;;;2.45;;
75798;SDS011;70933;44.692;37.776;2023-07-20T03:00:48;3.10;;;2.90;;
75798;SDS011;70933;44.692;37.776;2023-07-20T03:01:50;3.72;;;3.42;;
75798;SDS011;70933;44.692;37.776;2023-07-20T03:02:52;3.40;;;3.10;;
75798;SDS011;70933;44.692;37.776;2023-07-20T03:03:56;3.80;;;3.45;;
75798;SDS011;70933;44.692;37.776;2023-07-20T03:04:58;2.80;;;1.58;;
75798;SDS011;70933;44.692;37.776;2023-07-20T03:06:03;3.05;;;2.83;;
75798;SDS011;70933;44.692;37.776;2023-07-20T03:07:04;2.63;;;2.42;;
75798;SDS011;70933;44.692;37.776;2023-07-20T03:08:07;2.03;;;0.95;;
75798;SDS011;70933;44.692;37.776;2023-07-20T03:09:08;2.60;;;2.40;;
75798;SDS011;70933;44.692;37.776;2023-07-20T03:10:10;3.22;;;2.63;;
75798;SDS011;70933;44.692;37.776;2023-07-20T03:11:13;3.08;;;2.50;;
75798;SDS011;70933;44.692;37.776;2023-07-20T03:12:16;2.22;;;1.23;;
75798;SDS011;70933;44.692;37.776;2023-07-20T03:13:18;3.42;;;3.13;;
75798;SDS011;70933;44.692;37.776;2023-07-20T03:14:20;3.88;;;2.97;;
75798;SDS011;70933;44.692;37.776;2023-07-20T03:15:22;3.30;;;2.85;;
75798;SDS011;70933;44.692;37.776;2023-07-20T03:16:24;3.25;;;2.95;;
75798;SDS011;70933;44.692;37.776;2023-07-20T03:18:29;3.20;;;1.08;;
75798;SDS011;70933;44.692;37.776;2023-07-20T03:19:32;2.05;;;1.23;;
75798;SDS011;70933;44.692;37.776;2023-07-20T03:20:35;3.72;;;3.42;;
75798;SDS011;70933;44.692;37.776;2023-07-20T03:22:42;3.28;;;2.97;;
75798;SDS011;70933;44.692;37.776;2023-07-20T03:23:44;2.90;;;2.60;;
75798;SDS011;70933;44.692;37.776;2023-07-20T03:24:46;3.42;;;1.38;;
75798;SDS011;70933;44.692;37.776;2023-07-20T03:25:51;2.90;;;2.60;;
75798;SDS011;70933;44.692;37.776;2023-07-20T03:26:56;3.97;;;2.72;;
75798;SDS011;70933;44.692;37.776;2023-07-20T03:27:58;3.05;;;2.75;;
75798;SDS011;70933;44.692;37.776;2023-07-20T03:29:00;3.42;;;3.13;;
75798;SDS011;70933;44.692;37.776;2023-07-20T03:30:02;3.58;;;3.13;;
75798;SDS011;70933;44.692;37.776;2023-07-20T03:31:05;3.22;;;2.50;;
75798;SDS011;70933;44.692;37.776;2023-07-20T03:32:10;2.75;;;2.30;;
75798;SDS011;70933;44.692;37.776;2023-07-20T03:33:11;3.20;;;2.90;;
75798;SDS011;70933;44.692;37.776;2023-07-20T03:34:13;3.33;;;3.08;;
75798;SDS011;70933;44.692;37.776;2023-07-20T03:35:15;4.15;;;3.30;;
75798;SDS011;70933;44.692;37.776;2023-07-20T03:36:17;3.50;;;2.88;;
75798;SDS011;70933;44.692;37.776;2023-07-20T03:37:19;3.17;;;2.88;;
75798;SDS011;70933;44.692;37.776;2023-07-20T03:38:21;3.53;;;2.95;;
75798;SDS011;70933;44.692;37.776;2023-07-20T03:39:23;2.63;;;2.28;;
75798;SDS011;70933;44.692;37.776;2023-07-20T03:40:25;3.42;;;3.13;;
75798;SDS011;70933;44.692;37.776;2023-07-20T03:41:27;2.53;;;2.33;;
75798;SDS011;70933;44.692;37.776;2023-07-20T03:42:29;2.83;;;2.63;;
75798;SDS011;70933;44.692;37.776;2023-07-20T03:43:30;3.33;;;3.00;;
75798;SDS011;70933;44.692;37.776;2023-07-20T03:44:32;3.50;;;2.70;;
75798;SDS011;70933;44.692;37.776;2023-07-20T03:45:34;3.42;;;3.13;;
75798;SDS011;70933;44.692;37.776;2023-07-20T03:46:36;2.25;;;1.30;;
75798;SDS011;70933;44.692;37.776;2023-07-20T03:47:38;3.38;;;2.42;;
75798;SDS011;70933;44.692;37.776;2023-07-20T03:48:40;3.47;;;3.17;;
75798;SDS011;70933;44.692;37.776;2023-07-20T03:49:42;2.72;;;2.53;;
75798;SDS011;70933;44.692;37.776;2023-07-20T03:50:44;3.33;;;3.03;;
75798;SDS011;70933;44.692;37.776;2023-07-20T03:51:46;2.90;;;2.60;;
75798;SDS011;70933;44.692;37.776;2023-07-20T03:52:48;3.53;;;3.00;;
75798;SDS011;70933;44.692;37.776;2023-07-20T03:53:50;2.75;;;2.55;;
75798;SDS011;70933;44.692;37.776;2023-07-20T03:54:52;3.15;;;2.85;;
75798;SDS011;70933;44.692;37.776;2023-07-20T03:55:54;2.50;;;1.40;;
75798;SDS011;70933;44.692;37.776;2023-07-20T03:56:56;3.45;;;2.97;;
75798;SDS011;70933;44.692;37.776;2023-07-20T03:57:59;2.78;;;2.58;;
75798;SDS011;70933;44.692;37.776;2023-07-20T03:59:01;3.00;;;2.70;;
75798;SDS011;70933;44.692;37.776;2023-07-20T04:00:03;2.72;;;2.53;;
75798;SDS011;70933;44.692;37.776;2023-07-20T04:01:14;3.47;;;3.00;;
75798;SDS011;70933;44.692;37.776;2023-07-20T04:02:17;3.20;;;2.90;;
75798;SDS011;70933;44.692;37.776;2023-07-20T04:03:20;3.08;;;2.63;;
75798;SDS011;70933;44.692;37.776;2023-07-20T04:04:23;3.10;;;2.80;;
75798;SDS011;70933;44.692;37.776;2023-07-20T04:05:25;2.38;;;1.20;;
75798;SDS011;70933;44.692;37.776;2023-07-20T04:06:27;3.70;;;3.05;;
75798;SDS011;70933;44.692;37.776;2023-07-20T04:07:29;4.30;;;2.60;;
75798;SDS011;70933;44.692;37.776;2023-07-20T04:08:30;3.00;;;2.70;;
75798;SDS011;70933;44.692;37.776;2023-07-20T04:09:32;3.22;;;2.55;;
75798;SDS011;70933;44.692;37.776;2023-07-20T04:10:34;2.28;;;1.27;;
75798;SDS011;70933;44.692;37.776;2023-07-20T04:11:36;2.85;;;2.55;;
75798;SDS011;70933;44.692;37.776;2023-07-20T04:12:38;2.90;;;1.67;;
75798;SDS011;70933;44.692;37.776;2023-07-20T04:13:40;2.05;;;1.20;;
75798;SDS011;70933;44.692;37.776;2023-07-20T04:14:41;3.10;;;2.90;;
75798;SDS011;70933;44.692;37.776;2023-07-20T04:15:43;3.00;;;2.53;;
75798;SDS011;70933;44.692;37.776;2023-07-20T04:16:46;3.50;;;3.20;;
75798;SDS011;70933;44.692;37.776;2023-07-20T04:17:48;2.90;;;2.60;;
75798;SDS011;70933;44.692;37.776;2023-07-20T04:18:50;3.17;;;2.53;;
75798;SDS011;70933;44.692;37.776;2023-07-20T04:19:52;2.80;;;2.30;;
75798;SDS011;70933;44.692;37.776;2023-07-20T04:20:54;3.70;;;3.40;;
75798;SDS011;70933;44.692;37.776;2023-07-20T04:21:55;2.45;;;2.08;;
75798;SDS011;70933;44.692;37.776;2023-07-20T04:22:57;2.63;;;1.27;;
75798;SDS011;70933;44.692;37.776;2023-07-20T04:24:00;2.95;;;2.35;;
75798;SDS011;70933;44.692;37.776;2023-07-20T04:25:02;3.38;;;3.10;;
75798;SDS011;70933;44.692;37.776;2023-07-20T04:26:05;2.80;;;1.30;;
75798;SDS011;70933;44.692;37.776;2023-07-20T04:27:08;3.08;;;2.40;;
75798;SDS011;70933;44.692;37.776;2023-07-20T04:28:10;3.15;;;2.85;;
75798;SDS011;70933;44.692;37.776;2023-07-20T04:29:13;2.78;;;1.60;;
75798;SDS011;70933;44.692;37.776;2023-07-20T04:30:18;3.17;;;2.88;;
75798;SDS011;70933;44.692;37.776;2023-07-20T04:31:23;5.50;;;2.97;;
75798;SDS011;70933;44.692;37.776;2023-07-20T04:32:25;2.30;;;1.20;;
75798;SDS011;70933;44.692;37.776;2023-07-20T04:33:28;2.75;;;2.55;;
75798;SDS011;70933;44.692;37.776;2023-07-20T04:34:30;2.60;;;2.40;;
75798;SDS011;70933;44.692;37.776;2023-07-20T04:35:51;3.55;;;2.75;;
75798;SDS011;70933;44.692;37.776;2023-07-20T04:36:58;2.67;;;2.25;;
75798;SDS011;70933;44.692;37.776;2023-07-20T04:38:01;3.15;;;2.85;;
75798;SDS011;70933;44.692;37.776;2023-07-20T04:39:03;2.45;;;1.27;;
75798;SDS011;70933;44.692;37.776;2023-07-20T04:40:15;3.70;;;2.65;;
75798;SDS011;70933;44.692;37.776;2023-07-20T04:41:17;2.53;;;2.30;;
75798;SDS011;70933;44.692;37.776;2023-07-20T04:42:21;3.53;;;2.88;;
75798;SDS011;70933;44.692;37.776;2023-07-20T04:43:23;2.92;;;2.60;;
75798;SDS011;70933;44.692;37.776;2023-07-20T04:44:25;3.67;;;2.80;;
75798;SDS011;70933;44.692;37.776;2023-07-20T04:45:27;3.05;;;1.58;;
75798;SDS011;70933;44.692;37.776;2023-07-20T04:46:29;3.03;;;2.78;;
75798;SDS011;70933;44.692;37.776;2023-07-20T04:47:32;3.30;;;2.80;;
75798;SDS011;70933;44.692;37.776;2023-07-20T04:48:34;2.72;;;1.25;;
75798;SDS011;70933;44.692;37.776;2023-07-20T04:49:36;2.60;;;1.48;;
75798;SDS011;70933;44.692;37.776;2023-07-20T04:50:38;3.13;;;2.83;;
75798;SDS011;70933;44.692;37.776;2023-07-20T04:51:42;1.98;;;1.10;;
75798;SDS011;70933;44.692;37.776;2023-07-20T04:52:44;3.17;;;2.88;;
75798;SDS011;70933;44.692;37.776;2023-07-20T04:53:51;3.80;;;2.78;;
75798;SDS011;70933;44.692;37.776;2023-07-20T04:54:53;3.10;;;2.90;;
75798;SDS011;70933;44.692;37.776;2023-07-20T04:55:55;2.47;;;2.17;;
75798;SDS011;70933;44.692;37.776;2023-07-20T04:56:59;5.70;;;2.83;;
75798;SDS011;70933;44.692;37.776;2023-07-20T04:58:01;3.22;;;2.55;;
75798;SDS011;70933;44.692;37.776;2023-07-20T04:59:03;3.13;;;2.70;;
75798;SDS011;70933;44.692;37.776;2023-07-20T05:00:05;3.75;;;3.13;;
75798;SDS011;70933;44.692;37.776;2023-07-20T05:01:08;4.00;;;2.03;;
75798;SDS011;70933;44.692;37.776;2023-07-20T05:02:11;4.18;;;3.00;;
75798;SDS011;70933;44.692;37.776;2023-07-20T05:03:13;2.88;;;1.80;;
75798;SDS011;70933;44.692;37.776;2023-07-20T05:04:15;3.17;;;1.27;;
75798;SDS011;70933;44.692;37.776;2023-07-20T05:05:16;3.13;;;2.55;;
75798;SDS011;70933;44.692;37.776;2023-07-20T05:06:18;2.97;;;2.45;;
75798;SDS011;70933;44.692;37.776;2023-07-20T05:07:20;4.15;;;3.05;;
75798;SDS011;70933;44.692;37.776;2023-07-20T05:08:22;4.18;;;2.33;;
75798;SDS011;70933;44.692;37.776;2023-07-20T05:09:25;3.10;;;2.80;;
75798;SDS011;70933;44.692;37.776;2023-07-20T05:10:26;3.55;;;3.25;;
75798;SDS011;70933;44.692;37.776;2023-07-20T05:11:28;3.97;;;3.00;;
75798;SDS011;70933;44.692;37.776;2023-07-20T05:12:30;3.40;;;2.92;;
75798;SDS011;70933;44.692;37.776;2023-07-20T05:13:33;3.97;;;3.53;;
75798;SDS011;70933;44.692;37.776;2023-07-20T05:14:34;3.38;;;3.03;;
75798;SDS011;70933;44.692;37.776;2023-07-20T05:15:36;3.58;;;2.90;;
75798;SDS011;70933;44.692;37.776;2023-07-20T05:16:39;5.75;;;3.05;;
75798;SDS011;70933;44.692;37.776;2023-07-20T05:17:42;5.55;;;2.85;;
75798;SDS011;70933;44.692;37.776;2023-07-20T05:18:44;5.05;;;2.13;;
75798;SDS011;70933;44.692;37.776;2023-07-20T05:19:46;4.13;;;2.80;;
75798;SDS011;70933;44.692;37.776;2023-07-20T05:20:48;3.67;;;2.95;;
75798;SDS011;70933;44.692;37.776;2023-07-20T05:21:51;3.92;;;2.47;;
75798;SDS011;70933;44.692;37.776;2023-07-20T05:22:53;3.58;;;3.13;;
75798;SDS011;70933;44.692;37.776;2023-07-20T05:23:54;4.07;;;3.20;;
75798;SDS011;70933;44.692;37.776;2023-07-20T05:24:56;4.28;;;3.22;;
75798;SDS011;70933;44.692;37.776;2023-07-20T05:25:58;3.90;;;3.03;;
75798;SDS011;70933;44.692;37.776;2023-07-20T05:27:00;4.93;;;1.33;;
75798;SDS011;70933;44.692;37.776;2023-07-20T05:28:02;3.50;;;2.67;;
75798;SDS011;70933;44.692;37.776;2023-07-20T05:29:04;5.55;;;2.55;;
75798;SDS011;70933;44.692;37.776;2023-07-20T05:30:06;4.82;;;3.17;;
75798;SDS011;70933;44.692;37.776;2023-07-20T05:31:08;3.53;;;3.22;;
75798;SDS011;70933;44.692;37.776;2023-07-20T05:32:10;3.92;;;2.60;;
75798;SDS011;70933;44.692;37.776;2023-07-20T05:33:12;2.85;;;2.00;;
75798;SDS011;70933;44.692;37.776;2023-07-20T05:34:14;4.47;;;3.10;;
75798;SDS011;70933;44.692;37.776;2023-07-20T05:35:16;4.20;;;2.85;;
75798;SDS011;70933;44.692;37.776;2023-07-20T05:36:19;3.30;;;3.00;;
75798;SDS011;70933;44.692;37.776;2023-07-20T05:37:21;4.68;;;2.90;;
75798;SDS011;70933;44.692;37.776;2023-07-20T05:38:23;3.83;;;2.65;;
75798;SDS011;70933;44.692;37.776;2023-07-20T05:39:25;3.10;;;2.72;;
75798;SDS011;70933;44.692;37.776;2023-07-20T05:40:27;4.43;;;2.88;;
75798;SDS011;70933;44.692;37.776;2023-07-20T05:41:29;5.50;;;1.73;;
75798;SDS011;70933;44.692;37.776;2023-07-20T05:42:30;6.95;;;2.25;;
75798;SDS011;70933;44.692;37.776;2023-07-20T05:43:32;3.97;;;2.83;;
75798;SDS011;70933;44.692;37.776;2023-07-20T05:44:34;5.20;;;3.40;;
75798;SDS011;70933;44.692;37.776;2023-07-20T05:45:36;4.53;;;3.45;;
75798;SDS011;70933;44.692;37.776;2023-07-20T05:46:38;3.85;;;3.20;;
75798;SDS011;70933;44.692;37.776;2023-07-20T05:47:41;4.40;;;4.00;;
75798;SDS011;70933;44.692;37.776;2023-07-20T05:48:43;5.30;;;3.67;;
75798;SDS011;70933;44.692;37.776;2023-07-20T05:49:45;6.70;;;3.80;;
75798;SDS011;70933;44.692;37.776;2023-07-20T05:50:46;3.92;;;3.33;;
75798;SDS011;70933;44.692;37.776;2023-07-20T05:51:48;3.53;;;3.22;;
75798;SDS011;70933;44.692;37.776;2023-07-20T05:52:53;5.55;;;3.03;;
75798;SDS011;70933;44.692;37.776;2023-07-20T05:53:55;3.53;;;3.10;;
75798;SDS011;70933;44.692;37.776;2023-07-20T05:54:56;4.55;;;3.45;;
75798;SDS011;70933;44.692;37.776;2023-07-20T05:55:58;5.95;;;2.95;;
75798;SDS011;70933;44.692;37.776;2023-07-20T05:57:00;5.07;;;2.15;;
75798;SDS011;70933;44.692;37.776;2023-07-20T05:58:02;3.92;;;3.30;;
75798;SDS011;70933;44.692;37.776;2023-07-20T05:59:05;4.75;;;3.40;;
75798;SDS011;70933;44.692;37.776;2023-07-20T06:00:07;3.75;;;3.20;;
75798;SDS011;70933;44.692;37.776;2023-07-20T06:01:17;4.22;;;3.03;;
75798;SDS011;70933;44.692;37.776;2023-07-20T06:02:20;7.50;;;3.72;;
75798;SDS011;70933;44.692;37.776;2023-07-20T06:03:22;3.72;;;3.22;;
75798;SDS011;70933;44.692;37.776;2023-07-20T06:04:24;4.35;;;1.73;;
75798;SDS011;70933;44.692;37.776;2023-07-20T06:05:26;6.15;;;3.15;;
75798;SDS011;70933;44.692;37.776;2023-07-20T06:06:28;4.28;;;3.58;;
75798;SDS011;70933;44.692;37.776;2023-07-20T06:07:30;6.47;;;3.45;;
75798;SDS011;70933;44.692;37.776;2023-07-20T06:08:33;20.30;;;8.30;;
75798;SDS011;70933;44.692;37.776;2023-07-20T06:09:34;33.08;;;13.45;;
75798;SDS011;70933;44.692;37.776;2023-07-20T06:10:37;30.63;;;13.75;;
75798;SDS011;70933;44.692;37.776;2023-07-20T06:11:38;30.83;;;12.63;;
75798;SDS011;70933;44.692;37.776;2023-07-20T06:12:41;31.45;;;11.18;;
75798;SDS011;70933;44.692;37.776;2023-07-20T06:13:43;32.53;;;10.00;;
75798;SDS011;70933;44.692;37.776;2023-07-20T06:14:45;27.92;;;11.60;;
75798;SDS011;70933;44.692;37.776;2023-07-20T06:15:47;29.88;;;11.50;;
75798;SDS011;70933;44.692;37.776;2023-07-20T06:16:50;25.35;;;11.25;;
75798;SDS011;70933;44.692;37.776;2023-07-20T06:17:51;25.88;;;11.07;;
75798;SDS011;70933;44.692;37.776;2023-07-20T06:18:55;23.52;;;10.50;;
75798;SDS011;70933;44.692;37.776;2023-07-20T06:19:57;24.92;;;9.95;;
75798;SDS011;70933;44.692;37.776;2023-07-20T06:20:59;21.52;;;9.75;;
75798;SDS011;70933;44.692;37.776;2023-07-20T06:22:01;20.17;;;9.27;;
75798;SDS011;70933;44.692;37.776;2023-07-20T06:23:03;20.15;;;9.70;;